sensor_id;sensor_type;location;lat;lon;timestamp;temperature;humidity
17827;DHT22;9038;48.208;16.308;2023-07-28T00:01:27;22.20;63.90
17827;DHT22;9038;48.208;16.308;2023-07-28T00:03:29;22.20;63.90
17827;DHT22;9038;48.208;16.308;2023-07-28T00:05:31;22.20;63.90
17827;DHT22;9038;48.208;16.308;2023-07-28T00:07:31;22.30;64.20
17827;DHT22;9038;48.208;16.308;2023-07-28T00:09:35;22.20;64.40
17827;DHT22;9038;48.208;16.308;2023-07-28T00:11:37;22.20;64.60
17827;DHT22;9038;48.208;16.308;2023-07-28T00:13:38;22.20;64.60
17827;DHT22;9038;48.208;16.308;2023-07-28T00:15:39;22.20;64.80
17827;DHT22;9038;48.208;16.308;2023-07-28T00:17:43;22.20;64.90
17827;DHT22;9038;48.208;16.308;2023-07-28T00:19:51;22.20;65.20
17827;DHT22;9038;48.208;16.308;2023-07-28T00:21:53;22.20;65.20
17827;DHT22;9038;48.208;16.308;2023-07-28T00:23:56;22.20;65.80
17827;DHT22;9038;48.208;16.308;2023-07-28T00:25:58;22.20;66.50
17827;DHT22;9038;48.208;16.308;2023-07-28T00:27:59;22.20;65.80
17827;DHT22;9038;48.208;16.308;2023-07-28T00:30:01;22.20;65.90
17827;DHT22;9038;48.208;16.308;2023-07-28T00:32:03;22.30;65.90
17827;DHT22;9038;48.208;16.308;2023-07-28T00:34:06;22.20;66.10
17827;DHT22;9038;48.208;16.308;2023-07-28T00:36:08;22.20;66.40
17827;DHT22;9038;48.208;16.308;2023-07-28T00:38:10;22.20;66.60
17827;DHT22;9038;48.208;16.308;2023-07-28T00:40:12;22.20;66.90
17827;DHT22;9038;48.208;16.308;2023-07-28T00:42:14;22.20;67.10
17827;DHT22;9038;48.208;16.308;2023-07-28T00:44:14;22.20;67.10
17827;DHT22;9038;48.208;16.308;2023-07-28T00:46:17;22.20;67.50
17827;DHT22;9038;48.208;16.308;2023-07-28T00:48:19;22.20;67.90
17827;DHT22;9038;48.208;16.308;2023-07-28T00:50:24;22.20;68.20
17827;DHT22;9038;48.208;16.308;2023-07-28T00:52:26;22.10;68.60
17827;DHT22;9038;48.208;16.308;2023-07-28T00:54:28;22.20;68.60
17827;DHT22;9038;48.208;16.308;2023-07-28T00:56:29;22.20;68.70
17827;DHT22;9038;48.208;16.308;2023-07-28T00:58:31;22.20;69.40
17827;DHT22;9038;48.208;16.308;2023-07-28T01:00:32;22.20;69.50
17827;DHT22;9038;48.208;16.308;2023-07-28T01:02:34;22.20;70.00
17827;DHT22;9038;48.208;16.308;2023-07-28T01:04:36;22.20;70.40
17827;DHT22;9038;48.208;16.308;2023-07-28T01:06:53;22.20;70.90
17827;DHT22;9038;48.208;16.308;2023-07-28T01:08:58;22.20;71.50
17827;DHT22;9038;48.208;16.308;2023-07-28T01:11:03;22.30;72.40
17827;DHT22;9038;48.208;16.308;2023-07-28T01:13:05;22.30;73.40
17827;DHT22;9038;48.208;16.308;2023-07-28T01:15:07;22.20;73.30
17827;DHT22;9038;48.208;16.308;2023-07-28T01:17:09;22.20;73.80
17827;DHT22;9038;48.208;16.308;2023-07-28T01:19:17;22.20;74.40
17827;DHT22;9038;48.208;16.308;2023-07-28T01:21:20;22.20;74.60
17827;DHT22;9038;48.208;16.308;2023-07-28T01:23:27;22.20;74.80
17827;DHT22;9038;48.208;16.308;2023-07-28T01:25:33;22.20;75.70
17827;DHT22;9038;48.208;16.308;2023-07-28T01:27:39;22.20;76.00
17827;DHT22;9038;48.208;16.308;2023-07-28T01:29:42;22.20;76.70
17827;DHT22;9038;48.208;16.308;2023-07-28T01:31:45;22.10;77.20
17827;DHT22;9038;48.208;16.308;2023-07-28T01:33:47;22.10;77.80
17827;DHT22;9038;48.208;16.308;2023-07-28T01:35:48;22.00;78.00
17827;DHT22;9038;48.208;16.308;2023-07-28T01:37:49;22.00;78.40
17827;DHT22;9038;48.208;16.308;2023-07-28T01:39:51;21.90;78.80
17827;DHT22;9038;48.208;16.308;2023-07-28T01:41:54;21.90;79.20
17827;DHT22;9038;48.208;16.308;2023-07-28T01:43:58;21.90;79.60
17827;DHT22;9038;48.208;16.308;2023-07-28T01:45:59;21.80;80.30
17827;DHT22;9038;48.208;16.308;2023-07-28T01:48:01;21.80;81.10
17827;DHT22;9038;48.208;16.308;2023-07-28T01:50:02;21.70;82.00
17827;DHT22;9038;48.208;16.308;2023-07-28T01:52:04;21.70;83.00
17827;DHT22;9038;48.208;16.308;2023-07-28T01:54:05;21.70;83.70
17827;DHT22;9038;48.208;16.308;2023-07-28T01:56:07;21.70;84.70
17827;DHT22;9038;48.208;16.308;2023-07-28T01:58:09;21.70;85.50
17827;DHT22;9038;48.208;16.308;2023-07-28T02:00:12;21.70;86.20
17827;DHT22;9038;48.208;16.308;2023-07-28T02:02:14;21.70;87.30
17827;DHT22;9038;48.208;16.308;2023-07-28T02:04:16;21.70;88.10
17827;DHT22;9038;48.208;16.308;2023-07-28T02:06:18;21.70;88.90
17827;DHT22;9038;48.208;16.308;2023-07-28T02:08:20;21.70;89.50
17827;DHT22;9038;48.208;16.308;2023-07-28T02:10:21;21.70;90.20
17827;DHT22;9038;48.208;16.308;2023-07-28T02:12:23;21.70;90.40
17827;DHT22;9038;48.208;16.308;2023-07-28T02:14:25;21.70;90.80
17827;DHT22;9038;48.208;16.308;2023-07-28T02:16:28;21.70;91.20
17827;DHT22;9038;48.208;16.308;2023-07-28T02:18:31;21.70;91.40
17827;DHT22;9038;48.208;16.308;2023-07-28T02:20:32;21.70;91.60
17827;DHT22;9038;48.208;16.308;2023-07-28T02:22:36;21.70;91.70
17827;DHT22;9038;48.208;16.308;2023-07-28T02:24:37;21.70;91.80
17827;DHT22;9038;48.208;16.308;2023-07-28T02:26:38;21.70;91.90
17827;DHT22;9038;48.208;16.308;2023-07-28T02:28:40;21.70;92.10
17827;DHT22;9038;48.208;16.308;2023-07-28T02:30:41;21.70;92.40
17827;DHT22;9038;48.208;16.308;2023-07-28T02:32:44;21.70;93.00
17827;DHT22;9038;48.208;16.308;2023-07-28T02:34:45;21.70;93.00
17827;DHT22;9038;48.208;16.308;2023-07-28T02:36:47;21.70;93.00
17827;DHT22;9038;48.208;16.308;2023-07-28T02:38:49;21.70;93.10
17827;DHT22;9038;48.208;16.308;2023-07-28T02:40:50;21.70;93.30
17827;DHT22;9038;48.208;16.308;2023-07-28T02:42:52;21.70;93.30
17827;DHT22;9038;48.208;16.308;2023-07-28T02:44:54;21.70;93.30
17827;DHT22;9038;48.208;16.308;2023-07-28T02:46:56;21.70;93.20
17827;DHT22;9038;48.208;16.308;2023-07-28T02:48:59;21.70;93.40
17827;DHT22;9038;48.208;16.308;2023-07-28T02:51:02;21.70;93.70
17827;DHT22;9038;48.208;16.308;2023-07-28T02:53:03;21.70;93.50
17827;DHT22;9038;48.208;16.308;2023-07-28T02:55:05;21.60;93.70
17827;DHT22;9038;48.208;16.308;2023-07-28T02:57:07;21.60;93.80
17827;DHT22;9038;48.208;16.308;2023-07-28T02:59:09;21.60;93.90
17827;DHT22;9038;48.208;16.308;2023-07-28T03:01:10;21.50;94.20
17827;DHT22;9038;48.208;16.308;2023-07-28T03:03:12;21.50;94.50
17827;DHT22;9038;48.208;16.308;2023-07-28T03:05:15;21.40;94.50
17827;DHT22;9038;48.208;16.308;2023-07-28T03:07:17;21.40;94.60
17827;DHT22;9038;48.208;16.308;2023-07-28T03:09:19;21.50;94.30
17827;DHT22;9038;48.208;16.308;2023-07-28T03:11:20;21.50;94.20
17827;DHT22;9038;48.208;16.308;2023-07-28T03:13:22;21.50;94.10
17827;DHT22;9038;48.208;16.308;2023-07-28T03:15:24;21.60;94.10
17827;DHT22;9038;48.208;16.308;2023-07-28T03:17:25;21.60;94.10
17827;DHT22;9038;48.208;16.308;2023-07-28T03:19:27;21.60;94.10
17827;DHT22;9038;48.208;16.308;2023-07-28T03:21:30;21.60;94.20
17827;DHT22;9038;48.208;16.308;2023-07-28T03:23:32;21.60;94.30
17827;DHT22;9038;48.208;16.308;2023-07-28T03:25:34;21.60;94.20
17827;DHT22;9038;48.208;16.308;2023-07-28T03:27:35;21.60;94.20
17827;DHT22;9038;48.208;16.308;2023-07-28T03:29:37;21.60;94.20
17827;DHT22;9038;48.208;16.308;2023-07-28T03:31:39;21.60;94.30
17827;DHT22;9038;48.208;16.308;2023-07-28T03:33:41;21.70;94.40
17827;DHT22;9038;48.208;16.308;2023-07-28T03:35:42;21.70;94.50
17827;DHT22;9038;48.208;16.308;2023-07-28T03:37:45;21.70;94.60
17827;DHT22;9038;48.208;16.308;2023-07-28T03:39:47;21.70;94.50
17827;DHT22;9038;48.208;16.308;2023-07-28T03:41:49;21.70;94.40
17827;DHT22;9038;48.208;16.308;2023-07-28T03:43:50;21.70;94.80
17827;DHT22;9038;48.208;16.308;2023-07-28T03:45:52;21.70;94.80
17827;DHT22;9038;48.208;16.308;2023-07-28T03:47:53;21.70;95.00
17827;DHT22;9038;48.208;16.308;2023-07-28T03:49:55;21.70;95.10
17827;DHT22;9038;48.208;16.308;2023-07-28T03:51:56;21.70;95.10
17827;DHT22;9038;48.208;16.308;2023-07-28T03:53:59;21.80;95.10
17827;DHT22;9038;48.208;16.308;2023-07-28T03:56:01;21.80;95.10
17827;DHT22;9038;48.208;16.308;2023-07-28T03:58:02;21.80;95.00
17827;DHT22;9038;48.208;16.308;2023-07-28T04:00:04;21.90;95.20
17827;DHT22;9038;48.208;16.308;2023-07-28T04:02:06;21.90;95.30
17827;DHT22;9038;48.208;16.308;2023-07-28T04:04:08;21.90;95.20
17827;DHT22;9038;48.208;16.308;2023-07-28T04:06:10;22.00;95.10
17827;DHT22;9038;48.208;16.308;2023-07-28T04:08:12;22.00;95.10
17827;DHT22;9038;48.208;16.308;2023-07-28T04:10:15;22.10;95.20
17827;DHT22;9038;48.208;16.308;2023-07-28T04:12:16;22.10;95.10
17827;DHT22;9038;48.208;16.308;2023-07-28T04:14:18;22.10;95.10
17827;DHT22;9038;48.208;16.308;2023-07-28T04:16:19;22.00;95.00
17827;DHT22;9038;48.208;16.308;2023-07-28T04:18:20;22.00;95.00
17827;DHT22;9038;48.208;16.308;2023-07-28T04:20:22;22.10;95.10
17827;DHT22;9038;48.208;16.308;2023-07-28T04:22:23;22.10;94.90
17827;DHT22;9038;48.208;16.308;2023-07-28T04:24:25;22.20;94.80
17827;DHT22;9038;48.208;16.308;2023-07-28T04:26:28;22.20;94.80
17827;DHT22;9038;48.208;16.308;2023-07-28T04:28:30;22.20;95.10
17827;DHT22;9038;48.208;16.308;2023-07-28T04:30:32;22.20;95.20
17827;DHT22;9038;48.208;16.308;2023-07-28T04:32:34;22.10;95.50
17827;DHT22;9038;48.208;16.308;2023-07-28T04:34:35;22.10;95.50
17827;DHT22;9038;48.208;16.308;2023-07-28T04:36:37;22.00;95.60
17827;DHT22;9038;48.208;16.308;2023-07-28T04:38:39;22.10;95.60
17827;DHT22;9038;48.208;16.308;2023-07-28T04:40:40;22.10;95.30
17827;DHT22;9038;48.208;16.308;2023-07-28T04:42:43;22.20;95.20
17827;DHT22;9038;48.208;16.308;2023-07-28T04:44:45;22.20;95.10
17827;DHT22;9038;48.208;16.308;2023-07-28T04:46:47;22.20;94.00
17827;DHT22;9038;48.208;16.308;2023-07-28T04:48:49;22.30;94.10
17827;DHT22;9038;48.208;16.308;2023-07-28T04:50:50;22.30;93.70
17827;DHT22;9038;48.208;16.308;2023-07-28T04:52:51;22.30;93.50
17827;DHT22;9038;48.208;16.308;2023-07-28T04:54:53;22.30;93.30
17827;DHT22;9038;48.208;16.308;2023-07-28T04:56:53;22.30;92.80
17827;DHT22;9038;48.208;16.308;2023-07-28T04:58:57;22.30;92.60
17827;DHT22;9038;48.208;16.308;2023-07-28T05:00:59;22.40;92.70
17827;DHT22;9038;48.208;16.308;2023-07-28T05:03:01;22.40;92.50
17827;DHT22;9038;48.208;16.308;2023-07-28T05:05:03;22.40;92.70
17827;DHT22;9038;48.208;16.308;2023-07-28T05:07:05;22.50;92.70
17827;DHT22;9038;48.208;16.308;2023-07-28T05:09:07;22.50;92.70
17827;DHT22;9038;48.208;16.308;2023-07-28T05:11:09;22.70;92.70
17827;DHT22;9038;48.208;16.308;2023-07-28T05:13:11;22.70;93.00
17827;DHT22;9038;48.208;16.308;2023-07-28T05:15:14;22.70;93.00
17827;DHT22;9038;48.208;16.308;2023-07-28T05:17:16;22.80;92.90
17827;DHT22;9038;48.208;16.308;2023-07-28T05:19:18;22.80;92.80
17827;DHT22;9038;48.208;16.308;2023-07-28T05:21:20;22.80;92.70
17827;DHT22;9038;48.208;16.308;2023-07-28T05:23:22;22.80;92.60
17827;DHT22;9038;48.208;16.308;2023-07-28T05:25:24;22.90;92.20
17827;DHT22;9038;48.208;16.308;2023-07-28T05:27:25;23.00;92.30
17827;DHT22;9038;48.208;16.308;2023-07-28T05:29:27;22.90;91.80
17827;DHT22;9038;48.208;16.308;2023-07-28T05:31:30;22.90;91.60
17827;DHT22;9038;48.208;16.308;2023-07-28T05:33:31;22.90;91.80
17827;DHT22;9038;48.208;16.308;2023-07-28T05:35:33;22.90;91.90
17827;DHT22;9038;48.208;16.308;2023-07-28T05:37:34;23.00;91.90
17827;DHT22;9038;48.208;16.308;2023-07-28T05:39:35;23.00;91.70
17827;DHT22;9038;48.208;16.308;2023-07-28T05:41:37;23.10;91.70
17827;DHT22;9038;48.208;16.308;2023-07-28T05:43:39;23.10;91.40
17827;DHT22;9038;48.208;16.308;2023-07-28T05:45:45;23.10;90.80
17827;DHT22;9038;48.208;16.308;2023-07-28T05:47:48;23.10;88.90
17827;DHT22;9038;48.208;16.308;2023-07-28T05:49:50;23.10;89.60
17827;DHT22;9038;48.208;16.308;2023-07-28T05:51:53;23.10;89.30
17827;DHT22;9038;48.208;16.308;2023-07-28T05:53:55;23.10;88.70
17827;DHT22;9038;48.208;16.308;2023-07-28T05:55:57;23.20;88.00
17827;DHT22;9038;48.208;16.308;2023-07-28T05:57:59;23.30;85.60
17827;DHT22;9038;48.208;16.308;2023-07-28T05:59:59;23.40;85.70
17827;DHT22;9038;48.208;16.308;2023-07-28T06:02:01;23.50;85.40
17827;DHT22;9038;48.208;16.308;2023-07-28T06:04:03;23.60;84.40
17827;DHT22;9038;48.208;16.308;2023-07-28T06:06:05;23.70;82.20
17827;DHT22;9038;48.208;16.308;2023-07-28T06:08:07;23.70;82.70
17827;DHT22;9038;48.208;16.308;2023-07-28T06:10:09;23.80;80.30
17827;DHT22;9038;48.208;16.308;2023-07-28T06:12:11;23.90;79.10
17827;DHT22;9038;48.208;16.308;2023-07-28T06:14:13;24.00;78.70
17827;DHT22;9038;48.208;16.308;2023-07-28T06:16:15;24.00;78.50
17827;DHT22;9038;48.208;16.308;2023-07-28T06:18:16;24.10;77.60
17827;DHT22;9038;48.208;16.308;2023-07-28T06:20:19;24.20;76.70
17827;DHT22;9038;48.208;16.308;2023-07-28T06:22:21;24.30;75.70
17827;DHT22;9038;48.208;16.308;2023-07-28T06:24:22;24.40;75.70
17827;DHT22;9038;48.208;16.308;2023-07-28T06:26:24;24.60;74.30
17827;DHT22;9038;48.208;16.308;2023-07-28T06:28:26;24.60;75.50
17827;DHT22;9038;48.208;16.308;2023-07-28T06:30:28;24.70;73.50
17827;DHT22;9038;48.208;16.308;2023-07-28T06:32:29;24.70;72.80
17827;DHT22;9038;48.208;16.308;2023-07-28T06:34:31;24.90;73.70
17827;DHT22;9038;48.208;16.308;2023-07-28T06:36:34;25.00;73.10
17827;DHT22;9038;48.208;16.308;2023-07-28T06:38:36;25.00;72.80
17827;DHT22;9038;48.208;16.308;2023-07-28T06:40:39;25.10;74.30
17827;DHT22;9038;48.208;16.308;2023-07-28T06:42:41;25.10;73.20
17827;DHT22;9038;48.208;16.308;2023-07-28T06:44:42;25.20;73.60
17827;DHT22;9038;48.208;16.308;2023-07-28T06:46:44;25.30;72.80
17827;DHT22;9038;48.208;16.308;2023-07-28T06:48:46;25.40;71.40
17827;DHT22;9038;48.208;16.308;2023-07-28T06:50:47;25.50;70.40
17827;DHT22;9038;48.208;16.308;2023-07-28T06:52:50;25.60;70.40
17827;DHT22;9038;48.208;16.308;2023-07-28T06:54:52;25.70;68.70
17827;DHT22;9038;48.208;16.308;2023-07-28T06:56:55;25.70;67.90
17827;DHT22;9038;48.208;16.308;2023-07-28T06:58:56;25.50;68.20
17827;DHT22;9038;48.208;16.308;2023-07-28T07:00:58;25.60;69.20
17827;DHT22;9038;48.208;16.308;2023-07-28T07:03:00;25.50;68.50
17827;DHT22;9038;48.208;16.308;2023-07-28T07:05:01;25.50;68.50
17827;DHT22;9038;48.208;16.308;2023-07-28T07:07:03;25.50;68.30
17827;DHT22;9038;48.208;16.308;2023-07-28T07:09:06;25.50;68.70
17827;DHT22;9038;48.208;16.308;2023-07-28T07:11:08;25.40;69.00
17827;DHT22;9038;48.208;16.308;2023-07-28T07:13:09;25.50;69.20
17827;DHT22;9038;48.208;16.308;2023-07-28T07:15:11;25.50;69.10
17827;DHT22;9038;48.208;16.308;2023-07-28T07:17:13;25.50;68.90
17827;DHT22;9038;48.208;16.308;2023-07-28T07:19:15;25.50;69.10
17827;DHT22;9038;48.208;16.308;2023-07-28T07:21:17;25.60;70.50
17827;DHT22;9038;48.208;16.308;2023-07-28T07:23:18;25.70;69.10
17827;DHT22;9038;48.208;16.308;2023-07-28T07:25:21;25.70;68.40
17827;DHT22;9038;48.208;16.308;2023-07-28T07:27:23;25.70;68.40
17827;DHT22;9038;48.208;16.308;2023-07-28T07:29:25;25.70;67.80
17827;DHT22;9038;48.208;16.308;2023-07-28T07:31:27;25.80;67.50
17827;DHT22;9038;48.208;16.308;2023-07-28T07:33:28;25.90;66.90
17827;DHT22;9038;48.208;16.308;2023-07-28T07:51:48;29.60;57.80
17827;DHT22;9038;48.208;16.308;2023-07-28T07:53:50;29.80;57.80
17827;DHT22;9038;48.208;16.308;2023-07-28T07:55:50;30.50;55.80
17827;DHT22;9038;48.208;16.308;2023-07-28T07:57:52;31.20;54.20
17827;DHT22;9038;48.208;16.308;2023-07-28T07:59:54;31.90;53.40
17827;DHT22;9038;48.208;16.308;2023-07-28T08:01:56;32.60;50.20
17827;DHT22;9038;48.208;16.308;2023-07-28T08:04:00;33.20;50.40
17827;DHT22;9038;48.208;16.308;2023-07-28T08:06:02;33.80;49.10
17827;DHT22;9038;48.208;16.308;2023-07-28T08:08:05;34.50;46.80
17827;DHT22;9038;48.208;16.308;2023-07-28T08:10:08;34.90;46.20
17827;DHT22;9038;48.208;16.308;2023-07-28T08:12:09;35.40;45.20
17827;DHT22;9038;48.208;16.308;2023-07-28T08:14:11;36.00;44.40
17827;DHT22;9038;48.208;16.308;2023-07-28T08:16:13;36.60;43.60
17827;DHT22;9038;48.208;16.308;2023-07-28T08:18:15;36.90;41.90
17827;DHT22;9038;48.208;16.308;2023-07-28T08:20:15;37.50;41.60
17827;DHT22;9038;48.208;16.308;2023-07-28T08:22:17;37.70;40.30
17827;DHT22;9038;48.208;16.308;2023-07-28T08:24:20;37.90;39.60
17827;DHT22;9038;48.208;16.308;2023-07-28T08:26:22;38.30;39.60
17827;DHT22;9038;48.208;16.308;2023-07-28T08:28:24;38.30;39.30
17827;DHT22;9038;48.208;16.308;2023-07-28T08:30:26;38.20;38.60
17827;DHT22;9038;48.208;16.308;2023-07-28T08:32:26;38.60;39.20
17827;DHT22;9038;48.208;16.308;2023-07-28T08:34:28;39.30;38.80
17827;DHT22;9038;48.208;16.308;2023-07-28T08:36:30;40.00;37.80
17827;DHT22;9038;48.208;16.308;2023-07-28T08:38:31;40.80;36.60
17827;DHT22;9038;48.208;16.308;2023-07-28T08:40:34;41.40;35.30
17827;DHT22;9038;48.208;16.308;2023-07-28T08:42:37;41.30;35.20
17827;DHT22;9038;48.208;16.308;2023-07-28T08:44:39;40.70;35.30
17827;DHT22;9038;48.208;16.308;2023-07-28T08:46:41;40.30;35.50
17827;DHT22;9038;48.208;16.308;2023-07-28T08:48:43;40.00;35.40
17827;DHT22;9038;48.208;16.308;2023-07-28T08:50:46;40.00;35.90
17827;DHT22;9038;48.208;16.308;2023-07-28T08:52:47;40.00;35.80
17827;DHT22;9038;48.208;16.308;2023-07-28T08:54:50;40.20;35.60
17827;DHT22;9038;48.208;16.308;2023-07-28T08:56:53;40.20;35.30
17827;DHT22;9038;48.208;16.308;2023-07-28T08:58:58;40.20;35.40
17827;DHT22;9038;48.208;16.308;2023-07-28T09:00:59;40.20;34.90
17827;DHT22;9038;48.208;16.308;2023-07-28T09:03:02;40.00;35.50
17827;DHT22;9038;48.208;16.308;2023-07-28T09:05:04;40.20;35.20
17827;DHT22;9038;48.208;16.308;2023-07-28T09:07:06;40.00;35.10
17827;DHT22;9038;48.208;16.308;2023-07-28T09:09:08;40.00;35.10
17827;DHT22;9038;48.208;16.308;2023-07-28T09:11:09;39.50;35.30
17827;DHT22;9038;48.208;16.308;2023-07-28T09:13:15;39.70;35.70
17827;DHT22;9038;48.208;16.308;2023-07-28T09:15:17;40.20;35.30
17827;DHT22;9038;48.208;16.308;2023-07-28T09:17:18;40.10;35.40
17827;DHT22;9038;48.208;16.308;2023-07-28T09:19:20;40.00;35.10
17827;DHT22;9038;48.208;16.308;2023-07-28T09:21:22;40.20;35.10
17827;DHT22;9038;48.208;16.308;2023-07-28T09:23:27;40.40;34.70
17827;DHT22;9038;48.208;16.308;2023-07-28T09:25:29;40.50;35.00
17827;DHT22;9038;48.208;16.308;2023-07-28T09:27:31;40.70;34.00
17827;DHT22;9038;48.208;16.308;2023-07-28T09:29:34;40.50;34.20
17827;DHT22;9038;48.208;16.308;2023-07-28T09:31:36;40.50;34.50
17827;DHT22;9038;48.208;16.308;2023-07-28T09:33:38;40.80;34.00
17827;DHT22;9038;48.208;16.308;2023-07-28T09:35:47;41.30;33.30
17827;DHT22;9038;48.208;16.308;2023-07-28T09:37:49;41.70;32.60
17827;DHT22;9038;48.208;16.308;2023-07-28T09:39:52;41.80;32.60
17827;DHT22;9038;48.208;16.308;2023-07-28T09:41:54;41.70;32.60
17827;DHT22;9038;48.208;16.308;2023-07-28T09:43:58;41.60;32.50
17827;DHT22;9038;48.208;16.308;2023-07-28T09:46:04;41.50;32.60
17827;DHT22;9038;48.208;16.308;2023-07-28T09:48:06;40.70;32.90
17827;DHT22;9038;48.208;16.308;2023-07-28T09:50:09;40.40;33.10
17827;DHT22;9038;48.208;16.308;2023-07-28T09:52:11;40.00;33.60
17827;DHT22;9038;48.208;16.308;2023-07-28T09:54:16;40.30;33.80
17827;DHT22;9038;48.208;16.308;2023-07-28T09:56:20;40.70;34.00
17827;DHT22;9038;48.208;16.308;2023-07-28T09:58:23;41.10;33.10
17827;DHT22;9038;48.208;16.308;2023-07-28T10:00:25;41.00;33.10
17827;DHT22;9038;48.208;16.308;2023-07-28T10:02:29;40.40;33.30
17827;DHT22;9038;48.208;16.308;2023-07-28T10:04:31;40.40;33.50
17827;DHT22;9038;48.208;16.308;2023-07-28T10:06:33;40.50;33.80
17827;DHT22;9038;48.208;16.308;2023-07-28T10:08:34;40.60;33.80
17827;DHT22;9038;48.208;16.308;2023-07-28T10:10:38;40.70;33.70
17827;DHT22;9038;48.208;16.308;2023-07-28T10:12:41;40.60;33.90
17827;DHT22;9038;48.208;16.308;2023-07-28T10:14:42;40.30;33.80
17827;DHT22;9038;48.208;16.308;2023-07-28T10:16:45;40.70;33.70
17827;DHT22;9038;48.208;16.308;2023-07-28T10:18:54;40.80;33.60
17827;DHT22;9038;48.208;16.308;2023-07-28T10:20:58;40.90;33.30
17827;DHT22;9038;48.208;16.308;2023-07-28T10:23:06;40.80;33.20
17827;DHT22;9038;48.208;16.308;2023-07-28T10:25:08;41.10;33.20
17827;DHT22;9038;48.208;16.308;2023-07-28T10:27:10;41.30;33.20
17827;DHT22;9038;48.208;16.308;2023-07-28T10:29:13;41.40;33.60
17827;DHT22;9038;48.208;16.308;2023-07-28T10:31:15;41.20;33.50
17827;DHT22;9038;48.208;16.308;2023-07-28T10:33:31;41.10;33.40
17827;DHT22;9038;48.208;16.308;2023-07-28T10:35:34;41.30;33.30
17827;DHT22;9038;48.208;16.308;2023-07-28T10:37:36;41.30;33.30
17827;DHT22;9038;48.208;16.308;2023-07-28T10:39:37;41.30;33.30
17827;DHT22;9038;48.208;16.308;2023-07-28T10:41:40;41.10;33.20
17827;DHT22;9038;48.208;16.308;2023-07-28T10:43:42;40.90;33.70
17827;DHT22;9038;48.208;16.308;2023-07-28T10:45:44;40.80;33.80
17827;DHT22;9038;48.208;16.308;2023-07-28T10:47:45;40.70;34.00
17827;DHT22;9038;48.208;16.308;2023-07-28T10:49:48;41.00;34.20
17827;DHT22;9038;48.208;16.308;2023-07-28T10:51:51;41.40;34.00
17827;DHT22;9038;48.208;16.308;2023-07-28T10:53:54;41.30;33.80
17827;DHT22;9038;48.208;16.308;2023-07-28T10:58:05;39.80;34.80
17827;DHT22;9038;48.208;16.308;2023-07-28T11:00:08;38.50;36.70
17827;DHT22;9038;48.208;16.308;2023-07-28T11:02:13;37.80;37.80
17827;DHT22;9038;48.208;16.308;2023-07-28T11:04:15;37.30;38.50
17827;DHT22;9038;48.208;16.308;2023-07-28T11:06:17;37.30;38.90
17827;DHT22;9038;48.208;16.308;2023-07-28T11:08:20;37.30;38.60
17827;DHT22;9038;48.208;16.308;2023-07-28T11:10:23;37.80;38.70
17827;DHT22;9038;48.208;16.308;2023-07-28T11:12:25;38.60;38.00
17827;DHT22;9038;48.208;16.308;2023-07-28T11:14:27;39.10;37.20
17827;DHT22;9038;48.208;16.308;2023-07-28T11:16:30;39.50;36.70
17827;DHT22;9038;48.208;16.308;2023-07-28T11:18:33;39.80;36.60
17827;DHT22;9038;48.208;16.308;2023-07-28T11:20:35;40.00;36.00
17827;DHT22;9038;48.208;16.308;2023-07-28T11:22:36;40.20;35.70
17827;DHT22;9038;48.208;16.308;2023-07-28T11:24:40;40.80;35.40
17827;DHT22;9038;48.208;16.308;2023-07-28T11:26:41;40.80;35.30
17827;DHT22;9038;48.208;16.308;2023-07-28T11:28:43;41.10;34.60
17827;DHT22;9038;48.208;16.308;2023-07-28T11:30:45;40.50;34.70
17827;DHT22;9038;48.208;16.308;2023-07-28T11:32:48;40.20;35.60
17827;DHT22;9038;48.208;16.308;2023-07-28T11:34:50;40.10;36.00
17827;DHT22;9038;48.208;16.308;2023-07-28T11:36:52;40.90;35.30
17827;DHT22;9038;48.208;16.308;2023-07-28T11:38:54;41.50;34.20
17827;DHT22;9038;48.208;16.308;2023-07-28T11:40:57;42.40;33.60
17827;DHT22;9038;48.208;16.308;2023-07-28T11:42:58;43.40;33.10
17827;DHT22;9038;48.208;16.308;2023-07-28T11:45:01;44.00;32.20
17827;DHT22;9038;48.208;16.308;2023-07-28T11:47:04;44.20;31.20
17827;DHT22;9038;48.208;16.308;2023-07-28T11:49:09;44.40;31.40
17827;DHT22;9038;48.208;16.308;2023-07-28T11:51:12;44.50;31.40
17827;DHT22;9038;48.208;16.308;2023-07-28T11:53:14;44.60;31.10
17827;DHT22;9038;48.208;16.308;2023-07-28T11:55:16;43.80;31.00
17827;DHT22;9038;48.208;16.308;2023-07-28T11:57:19;43.30;31.40
17827;DHT22;9038;48.208;16.308;2023-07-28T11:59:28;43.00;32.00
17827;DHT22;9038;48.208;16.308;2023-07-28T12:01:30;43.10;31.30
17827;DHT22;9038;48.208;16.308;2023-07-28T12:03:32;43.30;30.70
17827;DHT22;9038;48.208;16.308;2023-07-28T12:05:33;43.30;30.70
17827;DHT22;9038;48.208;16.308;2023-07-28T12:07:35;42.70;30.70
17827;DHT22;9038;48.208;16.308;2023-07-28T12:09:50;42.50;31.40
17827;DHT22;9038;48.208;16.308;2023-07-28T12:11:52;42.20;31.90
17827;DHT22;9038;48.208;16.308;2023-07-28T12:13:55;42.10;32.20
17827;DHT22;9038;48.208;16.308;2023-07-28T12:15:57;42.20;32.50
17827;DHT22;9038;48.208;16.308;2023-07-28T12:18:03;42.60;32.20
17827;DHT22;9038;48.208;16.308;2023-07-28T12:20:04;42.10;32.60
17827;DHT22;9038;48.208;16.308;2023-07-28T12:24:12;40.90;33.70
17827;DHT22;9038;48.208;16.308;2023-07-28T12:26:14;41.30;34.20
17827;DHT22;9038;48.208;16.308;2023-07-28T12:28:16;41.60;33.40
17827;DHT22;9038;48.208;16.308;2023-07-28T12:30:19;41.40;33.40
17827;DHT22;9038;48.208;16.308;2023-07-28T12:32:20;41.20;34.40
17827;DHT22;9038;48.208;16.308;2023-07-28T12:34:21;40.50;34.40
17827;DHT22;9038;48.208;16.308;2023-07-28T12:38:25;40.10;34.70
17827;DHT22;9038;48.208;16.308;2023-07-28T12:40:27;40.40;35.00
17827;DHT22;9038;48.208;16.308;2023-07-28T12:42:29;40.50;35.20
17827;DHT22;9038;48.208;16.308;2023-07-28T12:44:30;40.00;35.20
17827;DHT22;9038;48.208;16.308;2023-07-28T12:46:33;39.80;35.90
17827;DHT22;9038;48.208;16.308;2023-07-28T12:48:35;39.40;36.30
17827;DHT22;9038;48.208;16.308;2023-07-28T12:50:36;38.70;37.10
17827;DHT22;9038;48.208;16.308;2023-07-28T12:52:38;37.60;38.50
17827;DHT22;9038;48.208;16.308;2023-07-28T12:54:40;36.70;39.70
17827;DHT22;9038;48.208;16.308;2023-07-28T12:56:43;36.10;40.40
17827;DHT22;9038;48.208;16.308;2023-07-28T12:58:44;35.10;41.60
17827;DHT22;9038;48.208;16.308;2023-07-28T13:00:46;34.60;42.80
17827;DHT22;9038;48.208;16.308;2023-07-28T13:02:48;34.10;43.50
17827;DHT22;9038;48.208;16.308;2023-07-28T13:04:50;33.70;44.50
17827;DHT22;9038;48.208;16.308;2023-07-28T13:06:51;33.40;45.10
17827;DHT22;9038;48.208;16.308;2023-07-28T13:08:53;33.20;45.70
17827;DHT22;9038;48.208;16.308;2023-07-28T13:10:55;32.90;46.60
17827;DHT22;9038;48.208;16.308;2023-07-28T13:12:56;32.70;46.80
17827;DHT22;9038;48.208;16.308;2023-07-28T13:14:58;32.60;47.70